createdAt,value
2018-12-07T00:04:34.775Z,99493.58
2018-12-07T00:07:43.981Z,99488.51
2018-12-07T00:10:34.179Z,99477.11
2018-12-07T00:13:25.362Z,99470.84
2018-12-07T00:16:34.491Z,99449.59
2018-12-07T00:19:25.043Z,99453.14
2018-12-07T00:22:34.553Z,99452.70
2018-12-07T00:25:43.690Z,99444.64
2018-12-07T00:32:47.016Z,99396.70
2018-12-07T00:35:37.326Z,99408.18
2018-12-07T00:38:46.550Z,99390.77
2018-12-07T00:41:36.810Z,99388.19
2018-12-07T00:44:25.678Z,99376.92
2018-12-07T00:47:15.881Z,99336.88
2018-12-07T00:53:59.507Z,99347.06
2018-12-07T01:00:53.664Z,99310.59
2018-12-07T01:04:02.901Z,99295.32
2018-12-07T01:07:12.132Z,99289.08
2018-12-07T01:10:21.272Z,99275.52
2018-12-07T01:16:46.853Z,99271.80
2018-12-07T01:19:37.195Z,99264.99
2018-12-07T01:22:27.727Z,99266.69
2018-12-07T01:25:37.007Z,99225.91
2018-12-07T01:28:46.161Z,99257.00
2018-12-07T01:32:12.622Z,99251.05
2018-12-07T01:35:03.270Z,99246.70
2018-12-07T01:38:12.804Z,99243.70
2018-12-07T01:41:22.348Z,99249.23
2018-12-07T01:44:48.969Z,99249.61
2018-12-07T01:51:11.211Z,99244.58
2018-12-07T01:54:20.700Z,99243.70
2018-12-07T01:57:29.845Z,99247.63
2018-12-07T02:00:20.405Z,99239.59
2018-12-07T02:06:36.435Z,99216.02
2018-12-07T02:09:45.644Z,99204.65
2018-12-07T02:16:45.054Z,99182.28
2018-12-07T02:19:54.781Z,99172.53
2018-12-07T02:23:03.661Z,99129.59
2018-12-07T02:26:20.941Z,99131.47
2018-12-07T02:28:50.534Z,99124.81
2018-12-07T02:31:20.315Z,99130.28
2018-12-07T02:33:49.914Z,99109.57
2018-12-07T02:36:19.653Z,99105.88
2018-12-07T02:38:49.218Z,99092.77
2018-12-07T02:41:18.929Z,99088.55
2018-12-07T02:43:48.640Z,99082.20
2018-12-07T02:46:18.331Z,99073.30
2018-12-07T02:48:47.945Z,99059.80
2018-12-07T02:51:17.718Z,99066.53
2018-12-07T02:53:47.343Z,99058.53
2018-12-07T02:56:16.979Z,99044.56
2018-12-07T02:58:46.743Z,99041.57
2018-12-07T03:01:16.392Z,99044.53
2018-12-07T03:03:46.016Z,99036.08
2018-12-07T03:06:15.700Z,99035.23
2018-12-07T03:08:45.316Z,99028.44
2018-12-07T03:11:15.023Z,99035.63
2018-12-07T03:13:44.647Z,99032.27
2018-12-07T03:16:14.347Z,99018.42
2018-12-07T03:18:43.893Z,99024.34
2018-12-07T03:21:13.685Z,99013.34
2018-12-07T03:23:43.298Z,99006.55
2018-12-07T03:26:12.902Z,99011.23
2018-12-07T03:28:42.550Z,98998.53
2018-12-07T03:31:12.129Z,98999.38
2018-12-07T03:33:41.803Z,98990.92
2018-12-07T03:36:11.420Z,98997.27
2018-12-07T03:38:41.211Z,98984.55
2018-12-07T03:41:10.803Z,98993.94
2018-12-07T03:43:40.462Z,98984.58
2018-12-07T03:46:10.154Z,98985.42
2018-12-07T03:48:39.839Z,98974.02
2018-12-07T03:51:09.451Z,98969.34
2018-12-07T03:53:39.168Z,98976.10
2018-12-07T03:56:08.772Z,98965.54
2018-12-07T03:58:38.366Z,98964.72
2018-12-07T04:01:08.023Z,98960.08
2018-12-07T04:03:37.628Z,98960.95
2018-12-07T04:06:07.227Z,98950.77
2018-12-07T04:08:36.907Z,98955.79
2018-12-07T04:11:06.531Z,98954.55
2018-12-07T04:13:36.418Z,98955.45
2018-12-07T04:16:06.149Z,98955.84
2018-12-07T04:18:35.859Z,98949.94
2018-12-07T04:21:05.604Z,98949.03
2018-12-07T04:23:35.266Z,98942.27
2018-12-07T04:26:04.974Z,98934.66
2018-12-07T04:28:36.202Z,98937.67
2018-12-07T04:31:06.035Z,98936.38
2018-12-07T04:33:35.645Z,98933.05
2018-12-07T04:36:07.499Z,98935.11
2018-12-07T04:38:37.041Z,98924.97
2018-12-07T04:41:06.721Z,98923.30
2018-12-07T04:43:36.656Z,98927.48
2018-12-07T04:46:06.348Z,98925.84
2018-12-07T04:48:35.952Z,98930.86
2018-12-07T04:51:05.677Z,98933.87
2018-12-07T04:53:35.404Z,98936.38
2018-12-07T04:56:05.153Z,98932.55
2018-12-07T04:58:34.791Z,98935.88
2018-12-07T05:01:04.624Z,98940.97
2018-12-07T05:03:34.195Z,98932.08
2018-12-07T05:06:03.810Z,98933.77
2018-12-07T05:08:33.422Z,98940.47
2018-12-07T05:11:03.131Z,98951.45
2018-12-07T05:13:32.700Z,98953.17
2018-12-07T05:16:02.340Z,98953.53
2018-12-07T05:18:32.232Z,98949.70
2018-12-07T05:21:01.863Z,98952.27
2018-12-07T05:23:31.474Z,98956.95
2018-12-07T05:26:01.168Z,98960.77
2018-12-07T05:28:30.849Z,98965.81
2018-12-07T05:31:02.089Z,98958.63
2018-12-07T05:33:32.090Z,98958.21
2018-12-07T05:36:01.833Z,98955.67
2018-12-07T05:38:31.427Z,98954.38
2018-12-07T05:41:00.982Z,98952.23
2018-12-07T05:43:30.614Z,98956.43
2018-12-07T05:46:00.185Z,98959.81
2018-12-07T05:48:31.090Z,98958.91
2018-12-07T05:51:00.678Z,98967.77
2018-12-07T05:53:30.320Z,98981.69
2018-12-07T05:55:59.892Z,98972.45
2018-12-07T05:58:29.521Z,98977.06
2018-12-07T06:00:59.077Z,98991.85
2018-12-07T06:03:28.750Z,98994.45
2018-12-07T06:05:58.334Z,98986.03
2018-12-07T06:08:28.575Z,98981.81
2018-12-07T06:10:58.182Z,98967.87
2018-12-07T06:13:27.797Z,98968.30
2018-12-07T06:15:57.391Z,98963.25
2018-12-07T06:18:27.035Z,98961.98
2018-12-07T06:20:56.628Z,98953.11
2018-12-07T06:23:26.272Z,98946.33
2018-12-07T06:25:55.964Z,98950.16
2018-12-07T06:28:25.552Z,98929.85
2018-12-07T06:30:55.222Z,98919.70
2018-12-07T06:33:24.954Z,98910.47
2018-12-07T06:35:54.713Z,98899.48
2018-12-07T06:38:24.306Z,98889.80
2018-12-07T06:40:53.897Z,98875.02
2018-12-07T06:43:23.479Z,98862.73
2018-12-07T06:45:53.114Z,98854.31
2018-12-07T06:48:22.698Z,98838.27
2018-12-07T06:50:52.360Z,98831.56
2018-12-07T06:53:22.098Z,98795.60
2018-12-07T06:55:51.763Z,98791.80
2018-12-07T06:58:21.353Z,98765.63
2018-12-07T07:00:51.074Z,98756.31
2018-12-07T07:03:20.683Z,98743.64
2018-12-07T07:05:50.388Z,98741.97
2018-12-07T07:08:19.963Z,98725.45
2018-12-07T07:10:49.572Z,98718.27
2018-12-07T07:13:19.174Z,98713.17
2018-12-07T07:15:48.802Z,98700.92
2018-12-07T07:18:18.398Z,98694.56
2018-12-07T07:20:48.056Z,98693.78
2018-12-07T07:23:17.667Z,98684.88
2018-12-07T07:25:47.283Z,98664.63
2018-12-07T07:28:16.902Z,98643.09
2018-12-07T07:30:46.559Z,98627.86
2018-12-07T07:33:16.311Z,98615.61
2018-12-07T07:35:46.136Z,98594.92
2018-12-07T07:38:15.738Z,98582.23
2018-12-07T07:40:45.397Z,98565.80
2018-12-07T07:43:15.238Z,98555.19
2018-12-07T07:45:44.911Z,98529.00
2018-12-07T07:48:14.532Z,98521.41
2018-12-07T07:50:44.201Z,98510.85
2018-12-07T07:53:13.753Z,98497.32
2018-12-07T07:55:43.426Z,98486.77
2018-12-07T07:58:13.010Z,98462.24
2018-12-07T08:00:42.620Z,98487.17
2018-12-07T08:03:12.201Z,98464.78
2018-12-07T08:05:41.837Z,98477.89
2018-12-07T08:08:11.414Z,98466.48
2018-12-07T08:10:41.067Z,98472.37
2018-12-07T08:13:10.665Z,98478.70
2018-12-07T08:15:40.284Z,98476.59
2018-12-07T08:18:09.868Z,98471.55
2018-12-07T08:20:39.493Z,98467.74
2018-12-07T08:23:14.756Z,98471.55
2018-12-07T08:25:40.726Z,98458.88
2018-12-07T08:28:10.331Z,98461.37
2018-12-07T08:30:39.983Z,98452.94
2018-12-07T08:33:09.681Z,98451.67
2018-12-07T08:35:39.297Z,98450.80
2018-12-07T08:38:08.851Z,98456.73
2018-12-07T08:40:38.503Z,98462.23
2018-12-07T08:43:08.054Z,98447.86
2018-12-07T08:45:37.862Z,98444.89
2018-12-07T08:48:07.503Z,98436.47
2018-12-07T08:50:37.229Z,98438.16
2018-12-07T08:53:06.863Z,98422.53
2018-12-07T08:55:36.601Z,98417.02
2018-12-07T08:58:06.254Z,98398.45
2018-12-07T09:00:35.964Z,98393.37
2018-12-07T09:03:06.117Z,98394.66
2018-12-07T09:05:36.866Z,98382.41
2018-12-07T09:08:06.607Z,98377.33
2018-12-07T09:10:36.414Z,98360.88
2018-12-07T09:13:06.113Z,98361.71
2018-12-07T09:15:35.932Z,98354.54
2018-12-07T09:18:05.605Z,98344.80
2018-12-07T09:20:35.318Z,98330.47
2018-12-07T09:23:05.298Z,98336.78
2018-12-07T09:25:34.948Z,98317.34
2018-12-07T09:28:04.628Z,98291.17
2018-12-07T09:30:34.256Z,98285.69
2018-12-07T09:33:03.978Z,98270.47
2018-12-07T09:35:33.586Z,98264.15
2018-12-07T09:38:03.297Z,98250.61
2018-12-07T09:40:32.814Z,98231.61
2018-12-07T09:43:02.465Z,98218.52
2018-12-07T09:45:32.046Z,98210.03
2018-12-07T09:48:01.694Z,98194.41
2018-12-07T09:50:31.251Z,98179.19
2018-12-07T09:53:00.888Z,98171.58
2018-12-07T09:55:30.432Z,98169.08
2018-12-07T09:58:00.103Z,98156.38
2018-12-07T10:00:29.865Z,98146.16
2018-12-07T10:02:59.536Z,98115.66
2018-12-07T10:05:29.108Z,98109.70
2018-12-07T10:07:58.744Z,98099.55
2018-12-07T10:10:28.297Z,98066.56
2018-12-07T10:12:57.961Z,98051.32
2018-12-07T10:15:27.667Z,98034.11
2018-12-07T10:17:57.388Z,98034.56
2018-12-07T10:20:26.961Z,98044.27
2018-12-07T10:22:56.584Z,98040.11
2018-12-07T10:25:26.149Z,98028.67
2018-12-07T10:27:55.686Z,98010.55
2018-12-07T10:30:25.279Z,98016.91
2018-12-07T10:32:54.832Z,98021.55
2018-12-07T10:35:24.429Z,98029.58
2018-12-07T10:37:54.019Z,98013.94
2018-12-07T10:40:23.635Z,98006.34
2018-12-07T10:42:53.251Z,97997.42
2018-12-07T10:45:22.850Z,97982.64
2018-12-07T10:47:52.433Z,97974.58
2018-12-07T10:50:22.070Z,97962.72
2018-12-07T10:52:51.842Z,97969.51
2018-12-07T10:55:21.479Z,97955.16
2018-12-07T10:57:51.032Z,97957.23
2018-12-07T11:00:25.695Z,97948.82
2018-12-07T11:03:00.545Z,97936.11
2018-12-07T11:05:42.567Z,97910.32
2018-12-07T11:08:17.256Z,97917.05
2018-12-07T11:10:52.064Z,97915.23
2018-12-07T11:13:26.809Z,97896.27
2018-12-07T11:16:01.541Z,97870.58
2018-12-07T11:18:36.366Z,97886.17
2018-12-07T11:21:11.109Z,97862.92
2018-12-07T11:23:45.933Z,97861.99
2018-12-07T11:26:20.873Z,97872.14
2018-12-07T11:28:55.592Z,97861.99
2018-12-07T11:31:30.621Z,97841.67
2018-12-07T11:34:06.167Z,97832.39
2018-12-07T11:36:35.735Z,97824.75
2018-12-07T11:39:09.204Z,97815.40
2018-12-07T11:41:38.876Z,97826.41
2018-12-07T11:44:08.505Z,97792.93
2018-12-07T11:46:38.074Z,97790.47
2018-12-07T11:49:07.726Z,97778.14
2018-12-07T11:51:37.300Z,97777.75
2018-12-07T11:54:06.880Z,97781.91
2018-12-07T11:56:36.455Z,97772.34
2018-12-07T11:59:06.034Z,97773.14
2018-12-07T12:01:35.620Z,97767.59
2018-12-07T12:04:05.263Z,97752.41
2018-12-07T12:06:34.985Z,97735.48
2018-12-07T12:09:06.845Z,97732.52
2018-12-07T12:11:36.704Z,97721.53
2018-12-07T12:14:06.333Z,97706.28
2018-12-07T12:16:35.883Z,97706.28
2018-12-07T12:19:05.548Z,97699.11
2018-12-07T12:21:35.097Z,97694.91
2018-12-07T12:24:04.773Z,97689.44
2018-12-07T12:26:34.342Z,97687.81
2018-12-07T12:29:03.907Z,97678.14
2018-12-07T12:31:33.493Z,97681.16
2018-12-07T12:34:03.040Z,97671.02
2018-12-07T12:36:32.686Z,97672.28
2018-12-07T12:39:02.519Z,97668.08
2018-12-07T12:41:32.097Z,97661.27
2018-12-07T12:44:01.681Z,97661.35
2018-12-07T12:46:31.388Z,97651.24
2018-12-07T12:49:00.989Z,97652.55
2018-12-07T12:51:30.705Z,97652.99
2018-12-07T12:54:00.361Z,97642.45
2018-12-07T12:56:30.003Z,97631.48
2018-12-07T12:58:59.581Z,97636.59
2018-12-07T13:01:29.218Z,97618.89
2018-12-07T13:03:58.805Z,97630.77
2018-12-07T13:06:28.435Z,97635.44
2018-12-07T13:08:58.204Z,97625.78
2018-12-07T13:11:27.867Z,97630.95
2018-12-07T13:13:57.467Z,97628.60
2018-12-07T13:16:27.145Z,97645.97
2018-12-07T13:18:56.741Z,97681.50
2018-12-07T13:21:26.343Z,97673.91
2018-12-07T13:23:55.956Z,97673.70
2018-12-07T13:26:25.708Z,97700.33
2018-12-07T13:28:55.300Z,97724.38
2018-12-07T13:31:24.989Z,97748.44
2018-12-07T13:33:54.617Z,97754.38
2018-12-07T13:36:24.331Z,97752.23
2018-12-07T13:38:54.056Z,97750.53
2018-12-07T13:41:23.800Z,97752.22
2018-12-07T13:43:53.489Z,97737.52
2018-12-07T13:46:23.333Z,97729.26
2018-12-07T13:48:53.088Z,97750.47
2018-12-07T13:51:22.958Z,97770.67
2018-12-07T13:53:52.848Z,97765.97
2018-12-07T13:56:22.535Z,97782.87
2018-12-07T13:58:52.357Z,97803.08
2018-12-07T14:01:22.299Z,97800.50
2018-12-07T14:03:52.222Z,97798.90
2018-12-07T14:06:22.164Z,97831.83
2018-12-07T14:08:52.250Z,97862.16
2018-12-07T14:11:22.170Z,97880.27
2018-12-07T14:13:52.150Z,97901.76
2018-12-07T14:16:21.995Z,97879.84
2018-12-07T14:18:51.749Z,97905.97
2018-12-07T14:21:21.852Z,97916.09
2018-12-07T14:23:51.719Z,97921.16
2018-12-07T14:26:21.752Z,97930.00
2018-12-07T14:28:51.651Z,97932.53
2018-12-07T14:31:21.612Z,97920.29
2018-12-07T14:33:51.359Z,97910.58
2018-12-07T14:36:21.141Z,97908.48
2018-12-07T14:38:50.803Z,97905.95
2018-12-07T14:41:20.534Z,97899.19
2018-12-07T14:43:50.353Z,97875.57
2018-12-07T14:46:20.149Z,97855.33
2018-12-07T14:48:49.898Z,97847.75
2018-12-07T14:51:19.643Z,97818.63
2018-12-07T14:53:49.657Z,97808.14
2018-12-07T14:56:20.943Z,97793.31
2018-12-07T14:58:50.867Z,97769.70
2018-12-07T15:01:20.384Z,97731.25
2018-12-07T15:03:50.092Z,97708.50
2018-12-07T15:06:20.011Z,97696.27
2018-12-07T15:08:49.792Z,97676.83
2018-12-07T15:11:19.436Z,97646.84
2018-12-07T15:13:49.194Z,97615.23
2018-12-07T15:16:19.216Z,97597.05
2018-12-07T15:18:48.872Z,97576.41
2018-12-07T15:21:18.660Z,97557.52
2018-12-07T15:23:48.398Z,97541.41
2018-12-07T15:26:18.039Z,97514.89
2018-12-07T15:28:47.765Z,97507.67
2018-12-07T15:31:17.512Z,97498.45
2018-12-07T15:33:47.385Z,97490.05
2018-12-07T15:36:17.327Z,97492.05
2018-12-07T15:38:47.099Z,97485.79
2018-12-07T15:41:16.866Z,97478.56
2018-12-07T15:43:46.806Z,97450.30
2018-12-07T15:46:16.740Z,97455.89
2018-12-07T15:48:46.716Z,97451.52
2018-12-07T15:51:16.453Z,97442.73
2018-12-07T15:53:46.294Z,97441.51
2018-12-07T15:56:16.239Z,97428.89
2018-12-07T15:58:45.955Z,97426.75
2018-12-07T16:01:15.734Z,97414.94
2018-12-07T16:03:45.623Z,97400.11
2018-12-07T16:06:15.464Z,97404.73
2018-12-07T16:08:45.411Z,97372.90
2018-12-07T16:11:15.184Z,97369.89
2018-12-07T16:13:44.830Z,97337.67
2018-12-07T16:16:14.498Z,97317.59
2018-12-07T16:18:44.213Z,97294.47
2018-12-07T16:21:13.923Z,97289.27
2018-12-07T16:23:43.781Z,97279.63
2018-12-07T16:26:13.478Z,97271.34
2018-12-07T16:28:43.235Z,97261.61
2018-12-07T16:31:13.026Z,97255.68
2018-12-07T16:33:42.745Z,97233.00
2018-12-07T16:36:12.355Z,97237.96
2018-12-07T16:38:41.984Z,97239.95
2018-12-07T16:41:11.992Z,97238.39
2018-12-07T16:43:43.929Z,97221.50
2018-12-07T16:46:13.808Z,97224.38
2018-12-07T16:48:43.643Z,97211.37
2018-12-07T16:51:13.631Z,97237.52
2018-12-07T16:53:43.270Z,97191.91
2018-12-07T16:56:12.857Z,97200.81
2018-12-07T16:58:42.641Z,97221.94
2018-12-07T17:01:12.622Z,97214.39
2018-12-07T17:03:42.400Z,97183.93
2018-12-07T17:06:12.086Z,97195.31
2018-12-07T17:08:42.358Z,97170.05
2018-12-07T17:11:12.229Z,97154.10
2018-12-07T17:13:41.966Z,97159.20
2018-12-07T17:16:11.885Z,97139.02
2018-12-07T17:18:41.786Z,97119.27
2018-12-07T17:21:11.603Z,97112.05
2018-12-07T17:23:41.617Z,97096.22
2018-12-07T17:26:11.378Z,97092.52
2018-12-07T17:28:41.474Z,97089.34
2018-12-07T17:31:11.139Z,97066.57
2018-12-07T17:33:40.979Z,97063.22
2018-12-07T17:36:10.819Z,97082.20
2018-12-07T17:38:40.566Z,97051.84
2018-12-07T17:41:10.463Z,97057.88
2018-12-07T17:43:40.392Z,97057.77
2018-12-07T17:46:10.281Z,97049.64
2018-12-07T17:48:40.082Z,97038.51
2018-12-07T17:51:09.885Z,97065.67
2018-12-07T17:53:39.768Z,97081.33
2018-12-07T17:56:09.622Z,97100.41
2018-12-07T17:58:39.581Z,97096.30
2018-12-07T18:01:09.333Z,97105.42
2018-12-07T18:03:39.027Z,97103.84
2018-12-07T18:06:08.851Z,97108.43
2018-12-07T18:08:38.762Z,97085.58
2018-12-07T18:11:09.453Z,97066.13
2018-12-07T18:13:39.290Z,97057.63
2018-12-07T18:16:09.144Z,97056.85
2018-12-07T18:18:38.991Z,97040.86
2018-12-07T18:21:08.874Z,97033.17
2018-12-07T18:23:38.653Z,97029.77
2018-12-07T18:26:08.618Z,97010.74
2018-12-07T18:28:38.365Z,97013.28
2018-12-07T18:31:08.207Z,96997.16
2018-12-07T18:33:38.103Z,96993.04
2018-12-07T18:36:08.107Z,96988.49
2018-12-07T18:38:38.077Z,96985.73
2018-12-07T18:41:07.935Z,96985.36
2018-12-07T18:43:37.767Z,96985.18
2018-12-07T18:46:07.612Z,96969.91
2018-12-07T18:48:37.450Z,96979.62
2018-12-07T18:51:07.113Z,96973.81
2018-12-07T18:53:36.838Z,96963.06
2018-12-07T18:56:06.672Z,96955.72
2018-12-07T18:58:36.428Z,96958.67
2018-12-07T19:01:06.422Z,96950.17
2018-12-07T19:03:36.123Z,96948.86
2018-12-07T19:06:06.118Z,96945.89
2018-12-07T19:08:35.920Z,96960.45
2018-12-07T19:11:05.853Z,96946.38
2018-12-07T19:13:35.676Z,96980.34
2018-12-07T19:16:05.549Z,96961.00
2018-12-07T19:18:35.632Z,96990.11
2018-12-07T19:21:05.278Z,97004.06
2018-12-07T19:23:35.348Z,97008.81
2018-12-07T19:26:05.284Z,97040.59
2018-12-07T19:28:35.390Z,97044.94
2018-12-07T19:31:05.171Z,97067.02
2018-12-07T19:33:34.728Z,97109.52
2018-12-07T19:36:04.550Z,97137.30
2018-12-07T19:38:34.363Z,97129.75
2018-12-07T19:41:04.555Z,97161.42
2018-12-07T19:43:34.532Z,97166.53
2018-12-07T19:46:04.686Z,97186.27
2018-12-07T19:48:34.499Z,97209.83
2018-12-07T19:51:07.318Z,97230.02
2018-12-07T19:53:37.068Z,97239.31
2018-12-07T19:56:06.812Z,97245.78
2018-12-07T19:58:37.093Z,97272.34
2018-12-07T20:01:07.175Z,97300.06
2018-12-07T20:03:37.169Z,97219.28
2018-12-07T20:06:07.302Z,97218.02
2018-12-07T20:08:37.344Z,97236.12
2018-12-07T20:11:07.103Z,97250.83
2018-12-07T20:13:37.078Z,97243.69
2018-12-07T20:16:07.130Z,97276.47
2018-12-07T20:18:36.841Z,97286.98
2018-12-07T20:21:06.507Z,97316.39
2018-12-07T20:23:36.602Z,97349.65
2018-12-07T20:26:06.597Z,97365.97
2018-12-07T20:28:36.372Z,97371.50
2018-12-07T20:31:06.169Z,97399.66
2018-12-07T20:33:36.271Z,97380.27
2018-12-07T20:36:06.332Z,97395.71
2018-12-07T20:38:36.332Z,97399.51
2018-12-07T20:41:06.097Z,97377.91
2018-12-07T20:43:35.797Z,97364.50
2018-12-07T20:46:05.547Z,97354.77
2018-12-07T20:48:35.466Z,97337.00
2018-12-07T20:51:05.246Z,97318.88
2018-12-07T20:53:35.355Z,97314.69
2018-12-07T20:56:05.120Z,97298.27
2018-12-07T20:58:35.180Z,97305.32
2018-12-07T21:01:05.283Z,97269.00
2018-12-07T21:04:45.632Z,97274.16
2018-12-07T21:07:52.415Z,97294.38
2018-12-07T21:11:26.083Z,97293.15
2018-12-07T21:14:41.820Z,97295.74
2018-12-07T21:17:36.354Z,97267.61
2018-12-07T21:20:18.685Z,97241.42
2018-12-07T21:22:48.300Z,97207.02
2018-12-07T21:25:18.074Z,97164.70
2018-12-07T21:27:47.711Z,97160.59
2018-12-07T21:30:57.134Z,97129.09
2018-12-07T21:35:55.715Z,97111.92
2018-12-07T21:38:25.698Z,97101.80
2018-12-07T21:40:55.409Z,97098.47
2018-12-07T21:43:25.254Z,97083.33
2018-12-07T21:45:54.896Z,97117.34
2018-12-07T21:48:29.746Z,97127.44
2018-12-07T21:52:45.400Z,97110.73
2018-12-07T21:55:15.203Z,97119.74
2018-12-07T21:57:45.105Z,97136.56
2018-12-07T22:00:15.522Z,97089.86
2018-12-07T22:02:45.309Z,97118.48
2018-12-07T22:05:15.028Z,97115.18
2018-12-07T22:07:44.826Z,97122.75
2018-12-07T22:13:12.615Z,97130.69
2018-12-07T22:15:42.407Z,97123.58
2018-12-07T22:18:12.430Z,97155.19
2018-12-07T22:20:42.287Z,97182.44
2018-12-07T22:23:11.915Z,97181.63
2018-12-07T22:25:41.604Z,97189.65
2018-12-07T22:28:11.279Z,97187.16
2018-12-07T22:30:41.477Z,97185.05
2018-12-07T22:33:11.673Z,97196.41
2018-12-07T22:35:41.690Z,97220.82
2018-12-07T22:38:11.826Z,97211.16
2018-12-07T22:40:41.637Z,97226.73
2018-12-07T22:43:11.649Z,97244.41
2018-12-07T22:45:41.349Z,97229.32
2018-12-07T22:48:11.185Z,97253.75
2018-12-07T22:50:41.224Z,97234.47
2018-12-07T22:53:10.874Z,97225.66
2018-12-07T22:55:40.514Z,97257.57
2018-12-07T22:58:10.195Z,97225.66
2018-12-07T23:00:44.379Z,97238.28
2018-12-07T23:03:14.353Z,97262.62
2018-12-07T23:05:44.033Z,97278.20
2018-12-07T23:08:13.662Z,97262.27
2018-12-07T23:10:43.289Z,97266.89
2018-12-07T23:13:12.911Z,97262.73
2018-12-07T23:15:42.805Z,97271.12
2018-12-07T23:18:12.552Z,97278.24
2018-12-07T23:20:42.157Z,97278.66
2018-12-07T23:23:11.818Z,97291.26
2018-12-07T23:25:41.496Z,97284.97
2018-12-07T23:28:11.596Z,97288.78
2018-12-07T23:30:41.503Z,97289.18
2018-12-07T23:33:11.224Z,97300.53
2018-12-07T23:35:41.030Z,97288.77
2018-12-07T23:38:10.819Z,97300.11
2018-12-07T23:40:40.439Z,97297.59
2018-12-07T23:43:10.464Z,97296.34
2018-12-07T23:45:40.496Z,97294.26
2018-12-07T23:48:10.221Z,97299.30
2018-12-07T23:50:39.842Z,97297.19
2018-12-07T23:53:09.546Z,97292.13
2018-12-07T23:55:39.195Z,97298.85
2018-12-07T23:58:08.857Z,97288.37
